< < Back
Terminal Aerodrome Forecast


Current Version              Previous Versions:   1  2  3  4  5  6  7  8  9  

Terminal Aerodrome Forecast

999
FTUS44 KOHX 252320
TAFCSV
TAF
KCSV 252320Z 2600/2624 00000KT P6SM SKC
     FM261500 26007KT P6SM SCT060 BKN120
     FM262100 32007KT P6SM VCSH BKN050=



Latest METAR

052
SAUS70 KWBC 260300 RRH
MTRCSV
METAR KCSV 260253Z AUTO 00000KT 10SM CLR 20/18 A3012 RMK AO2 SLP175
T02000183 51006


USA.gov is the U.S. government's official web portal to all federal, state and local government web resources and services.